createdAt,value
2023-01-19T00:01:24.459Z,98006.42
2023-01-19T00:03:52.113Z,98001.95
2023-01-19T00:06:19.785Z,98000.75
2023-01-19T00:08:49.831Z,98007.94
2023-01-19T00:11:20.459Z,98024.13
2023-01-19T00:13:51.153Z,98041.49
2023-01-19T00:16:19.108Z,98047.17
2023-01-19T00:18:46.849Z,98052.01
2023-01-19T00:21:14.959Z,98047.36
2023-01-19T00:23:42.872Z,98046.17
2023-01-19T00:26:10.944Z,98036.88
2023-01-19T00:28:38.576Z,98034.28
2023-01-19T00:31:06.266Z,98034.48
2023-01-19T00:33:33.860Z,98033.61
2023-01-19T00:36:01.559Z,98038.41
2023-01-19T00:38:29.188Z,98041.83
2023-01-19T00:40:56.866Z,98036.80
2023-01-19T00:43:24.474Z,98032.64
2023-01-19T00:45:52.917Z,98028.68
2023-01-19T00:48:20.640Z,98030.38
2023-01-19T00:50:49.201Z,98033.62
2023-01-19T00:53:16.847Z,98038.79
2023-01-19T00:55:44.543Z,98035.70
2023-01-19T00:58:12.237Z,98030.33
2023-01-19T01:00:39.874Z,98030.85
2023-01-19T01:03:07.612Z,98034.14
2023-01-19T01:05:35.565Z,98024.86
2023-01-19T01:08:03.224Z,98014.20
2023-01-19T01:10:31.116Z,98015.91
2023-01-19T01:12:59.027Z,98021.08
2023-01-19T01:15:27.126Z,98018.71
2023-01-19T01:17:54.771Z,98017.17
2023-01-19T01:20:22.445Z,98019.06
2023-01-19T01:22:50.112Z,98018.71
2023-01-19T01:25:17.716Z,98023.66
2023-01-19T01:27:45.363Z,98021.77
2023-01-19T01:30:13.043Z,98020.23
2023-01-19T01:32:40.684Z,98012.12
2023-01-19T01:35:09.235Z,98005.91
2023-01-19T01:37:36.888Z,98008.03
2023-01-19T01:40:04.559Z,98004.94
2023-01-19T01:42:32.230Z,98002.01
2023-01-19T01:45:00.987Z,98003.88
2023-01-19T01:47:28.641Z,98008.02
2023-01-19T01:49:56.216Z,98004.21
2023-01-19T01:52:24.075Z,97997.36
2023-01-19T01:54:52.941Z,97997.36
2023-01-19T01:57:20.633Z,97993.60
2023-01-19T01:59:48.266Z,97991.73
2023-01-19T02:02:34.965Z,97994.79
2023-01-19T02:05:04.283Z,97995.65
2023-01-19T02:07:50.818Z,97995.13
2023-01-19T02:10:37.095Z,97990.66
2023-01-19T02:13:20.762Z,97987.91
2023-01-19T02:15:48.458Z,97978.79
2023-01-19T02:18:16.069Z,97975.70
2023-01-19T02:20:43.813Z,97973.61
2023-01-19T02:23:11.508Z,97978.41
2023-01-19T02:25:40.724Z,97979.09
2023-01-19T02:28:08.355Z,97982.67
2023-01-19T02:30:36.008Z,97987.98
2023-01-19T02:33:03.860Z,97990.73
2023-01-19T02:35:31.565Z,97991.26
2023-01-19T02:37:59.176Z,97983.04
2023-01-19T02:40:26.816Z,97980.29
2023-01-19T02:42:54.434Z,97977.70
2023-01-19T02:45:22.081Z,97980.09
2023-01-19T02:47:49.715Z,97981.96
2023-01-19T02:50:17.545Z,97982.80
2023-01-19T02:52:46.224Z,97987.75
2023-01-19T02:55:13.862Z,97991.32
2023-01-19T02:57:43.804Z,97992.38
2023-01-19T03:00:11.421Z,97987.41
2023-01-19T03:02:39.073Z,97977.77
2023-01-19T03:05:06.768Z,97975.88
2023-01-19T03:07:34.382Z,97970.20
2023-01-19T03:10:02.018Z,97968.30
2023-01-19T03:12:29.659Z,97969.33
2023-01-19T03:14:57.275Z,97974.34
2023-01-19T03:17:24.955Z,97977.30
2023-01-19T03:19:52.952Z,97978.70
2023-01-19T03:22:20.565Z,97974.75
2023-01-19T03:24:48.209Z,97971.15
2023-01-19T03:27:15.862Z,97966.66
2023-01-19T03:29:43.531Z,97970.95
2023-01-19T03:32:11.156Z,97971.80
2023-01-19T03:34:38.761Z,97968.88
2023-01-19T03:37:06.427Z,97969.06
2023-01-19T03:39:34.072Z,97971.65
2023-01-19T03:42:02.439Z,97973.36
2023-01-19T03:44:30.078Z,97973.52
2023-01-19T03:46:57.775Z,97974.69
2023-01-19T03:49:25.421Z,97974.66
2023-01-19T03:51:53.072Z,97982.01
2023-01-19T03:54:20.715Z,97981.32
2023-01-19T03:56:48.324Z,97981.34
2023-01-19T03:59:17.693Z,97983.42
2023-01-19T04:01:45.448Z,97981.83
2023-01-19T04:04:15.937Z,97980.40
2023-01-19T04:06:43.872Z,97973.64
2023-01-19T04:09:11.502Z,97974.27
2023-01-19T04:11:39.120Z,97972.48
2023-01-19T04:14:06.816Z,97973.42
2023-01-19T04:16:34.436Z,97971.02
2023-01-19T04:19:02.064Z,97972.54
2023-01-19T04:21:29.678Z,97978.16
2023-01-19T04:23:57.411Z,97981.39
2023-01-19T04:26:25.089Z,97980.02
2023-01-19T04:28:52.767Z,97981.70
2023-01-19T04:31:20.641Z,97987.73
2023-01-19T04:33:48.441Z,97994.84
2023-01-19T04:36:16.072Z,98002.52
2023-01-19T04:38:43.711Z,98003.29
2023-01-19T04:41:11.305Z,97997.14
2023-01-19T04:43:38.927Z,98006.98
2023-01-19T04:46:06.980Z,98026.27
2023-01-19T04:48:34.611Z,98040.75
2023-01-19T04:51:02.286Z,98039.24
2023-01-19T04:53:29.979Z,98044.65
2023-01-19T04:55:57.714Z,98065.65
2023-01-19T04:58:25.340Z,98076.49
2023-01-19T05:00:53.361Z,98090.76
2023-01-19T05:03:21.035Z,98097.96
2023-01-19T05:05:48.717Z,98106.71
2023-01-19T05:08:16.409Z,98111.15
2023-01-19T05:10:44.075Z,98116.31
2023-01-19T05:13:11.680Z,98111.20
2023-01-19T05:15:39.291Z,98102.60
2023-01-19T05:18:06.903Z,98110.51
2023-01-19T05:20:34.539Z,98115.15
2023-01-19T05:23:02.551Z,98107.23
2023-01-19T05:25:30.560Z,98113.58
2023-01-19T05:27:58.206Z,98111.50
2023-01-19T05:30:25.838Z,98096.26
2023-01-19T05:32:53.471Z,98087.19
2023-01-19T05:35:31.251Z,98089.27
2023-01-19T05:38:03.112Z,98085.34
2023-01-19T05:40:30.757Z,98070.40
2023-01-19T05:43:01.512Z,98054.23
2023-01-19T05:45:29.397Z,98042.36
2023-01-19T05:47:57.025Z,98035.50
2023-01-19T05:50:25.502Z,98034.15
2023-01-19T05:52:53.594Z,98026.43
2023-01-19T05:55:21.220Z,98042.59
2023-01-19T05:57:48.849Z,98064.06
2023-01-19T06:00:16.588Z,98073.52
2023-01-19T06:02:44.275Z,98083.65
2023-01-19T06:05:12.077Z,98109.59
2023-01-19T06:07:39.701Z,98136.59
2023-01-19T06:10:07.351Z,98150.55
2023-01-19T06:12:34.987Z,98147.27
2023-01-19T06:15:02.600Z,98138.28
2023-01-19T06:17:30.229Z,98140.48
2023-01-19T06:19:58.071Z,98145.30
2023-01-19T06:22:25.676Z,98143.55
2023-01-19T06:24:53.359Z,98140.08
2023-01-19T06:27:20.971Z,98130.44
2023-01-19T06:29:48.675Z,98121.38
2023-01-19T06:32:16.373Z,98115.40
2023-01-19T06:34:44.098Z,98107.82
2023-01-19T06:37:11.833Z,98094.77
2023-01-19T06:39:41.246Z,98089.95
2023-01-19T06:42:08.875Z,98094.42
2023-01-19T06:44:36.517Z,98103.34
2023-01-19T06:47:15.494Z,98114.33
2023-01-19T06:49:43.958Z,98134.61
2023-01-19T06:52:11.632Z,98150.82
2023-01-19T06:54:39.229Z,98150.27
2023-01-19T06:57:06.854Z,98139.19
2023-01-19T06:59:34.513Z,98135.71
2023-01-19T07:02:27.715Z,98139.80
2023-01-19T07:04:49.861Z,98160.24
2023-01-19T07:07:17.552Z,98163.51
2023-01-19T07:09:45.171Z,98161.91
2023-01-19T07:12:12.802Z,98155.58
2023-01-19T07:14:41.268Z,98160.76
2023-01-19T07:17:09.011Z,98173.10
2023-01-19T07:19:36.903Z,98178.40
2023-01-19T07:22:04.570Z,98174.90
2023-01-19T07:24:33.811Z,98175.34
2023-01-19T07:27:01.427Z,98177.85
2023-01-19T07:29:29.136Z,98172.64
2023-01-19T07:31:57.051Z,98172.00
2023-01-19T07:34:24.664Z,98174.95
2023-01-19T07:36:52.297Z,98175.12
2023-01-19T07:39:20.267Z,98168.63
2023-01-19T07:41:47.930Z,98178.61
2023-01-19T07:44:15.554Z,98181.70
2023-01-19T07:46:43.567Z,98187.68
2023-01-19T07:49:11.802Z,98191.80
2023-01-19T07:51:39.506Z,98189.98
2023-01-19T07:54:08.629Z,98193.77
2023-01-19T07:56:36.236Z,98189.13
2023-01-19T07:59:03.864Z,98187.42
2023-01-19T08:01:31.760Z,98175.06
2023-01-19T08:03:59.476Z,98176.59
2023-01-19T08:06:27.102Z,98183.44
2023-01-19T08:08:54.719Z,98179.90
2023-01-19T08:11:22.341Z,98180.02
2023-01-19T08:13:50.024Z,98175.11
2023-01-19T08:16:17.681Z,98171.20
2023-01-19T08:18:45.350Z,98182.05
2023-01-19T08:21:13.026Z,98178.65
2023-01-19T08:23:40.701Z,98180.06
2023-01-19T08:26:08.378Z,98184.17
2023-01-19T08:28:35.982Z,98184.17
2023-01-19T08:31:18.689Z,98190.67
2023-01-19T08:33:48.001Z,98185.05
2023-01-19T08:36:15.677Z,98184.19
2023-01-19T08:38:45.153Z,98184.67
2023-01-19T08:41:14.276Z,98184.61
2023-01-19T08:43:41.872Z,98175.73
2023-01-19T08:46:09.582Z,98171.70
2023-01-19T08:48:39.713Z,98172.73
2023-01-19T08:51:07.603Z,98176.63
2023-01-19T08:53:35.262Z,98178.10
2023-01-19T08:56:03.622Z,98180.51
2023-01-19T08:58:31.236Z,98177.89
2023-01-19T09:00:58.887Z,98173.17
2023-01-19T09:03:26.553Z,98171.93
2023-01-19T09:05:54.228Z,98180.27
2023-01-19T09:08:21.844Z,98176.91
2023-01-19T09:10:49.486Z,98171.67
2023-01-19T09:13:17.177Z,98179.41
2023-01-19T09:15:44.917Z,98180.23
2023-01-19T09:18:13.838Z,98174.98
2023-01-19T09:20:42.810Z,98168.66
2023-01-19T09:23:13.343Z,98168.08
2023-01-19T09:25:41.118Z,98159.73
2023-01-19T09:28:09.472Z,98159.30
2023-01-19T09:30:37.694Z,98155.27
2023-01-19T09:33:06.546Z,98147.51
2023-01-19T09:35:34.219Z,98145.11
2023-01-19T09:38:02.219Z,98146.38
2023-01-19T09:40:30.131Z,98142.17
2023-01-19T09:42:59.429Z,98138.51
2023-01-19T09:45:27.102Z,98140.35
2023-01-19T09:47:54.768Z,98137.61
2023-01-19T09:50:22.394Z,98130.05
2023-01-19T09:52:50.174Z,98132.66
2023-01-19T09:55:17.773Z,98142.46
2023-01-19T09:57:45.490Z,98147.23
2023-01-19T10:00:13.120Z,98148.11
2023-01-19T10:02:40.866Z,98138.14
2023-01-19T10:05:08.742Z,98132.59
2023-01-19T10:07:36.389Z,98127.77
2023-01-19T10:10:04.010Z,98125.82
2023-01-19T10:12:31.669Z,98124.03
2023-01-19T10:14:59.482Z,98127.71
2023-01-19T10:17:27.130Z,98125.77
2023-01-19T10:19:54.798Z,98124.37
2023-01-19T10:22:22.490Z,98125.68
2023-01-19T10:24:50.128Z,98123.73
2023-01-19T10:27:20.945Z,98118.09
2023-01-19T10:29:48.602Z,98121.84
2023-01-19T10:32:17.495Z,98115.75
2023-01-19T10:34:45.102Z,98103.71
2023-01-19T10:37:12.752Z,98107.48
2023-01-19T10:39:40.356Z,98113.77
2023-01-19T10:42:07.970Z,98110.60
2023-01-19T10:44:35.591Z,98106.67
2023-01-19T10:47:03.320Z,98106.88
2023-01-19T10:49:31.706Z,98104.98
2023-01-19T10:51:59.374Z,98101.84
2023-01-19T10:54:26.955Z,98097.29
2023-01-19T10:56:54.732Z,98100.36
2023-01-19T10:59:22.376Z,98103.27
2023-01-19T11:01:50.208Z,98100.68
2023-01-19T11:04:17.972Z,98096.72
2023-01-19T11:06:45.576Z,98087.80
2023-01-19T11:09:13.283Z,98084.31
2023-01-19T11:11:40.896Z,98084.34
2023-01-19T11:14:08.616Z,98081.88
2023-01-19T11:16:38.311Z,98075.10
2023-01-19T11:19:05.925Z,98070.30
2023-01-19T11:21:33.617Z,98066.31
2023-01-19T11:24:01.259Z,98064.41
2023-01-19T11:26:29.192Z,98069.89
2023-01-19T11:28:56.854Z,98072.44
2023-01-19T11:31:24.593Z,98064.63
2023-01-19T11:33:52.419Z,98064.80
2023-01-19T11:36:21.346Z,98068.21
2023-01-19T11:38:50.608Z,98068.93
2023-01-19T11:41:18.353Z,98070.35
2023-01-19T11:43:49.371Z,98070.58
2023-01-19T11:46:17.339Z,98071.30
2023-01-19T11:48:44.956Z,98069.19
2023-01-19T11:51:12.547Z,98058.45
2023-01-19T11:53:40.207Z,98051.91
2023-01-19T11:56:07.867Z,98046.73
2023-01-19T11:58:35.482Z,98051.67
2023-01-19T12:01:03.152Z,98050.28
2023-01-19T12:03:30.945Z,98045.81
2023-01-19T12:05:58.609Z,98046.48
2023-01-19T12:08:27.133Z,98048.45
2023-01-19T12:10:54.756Z,98054.27
2023-01-19T12:13:22.437Z,98059.19
2023-01-19T12:15:50.486Z,98066.54
2023-01-19T12:18:18.308Z,98059.00
2023-01-19T12:20:45.951Z,98053.17
2023-01-19T12:23:13.642Z,98048.73
2023-01-19T12:25:41.403Z,98050.00
2023-01-19T12:28:09.055Z,98045.87
2023-01-19T12:30:36.808Z,98047.27
2023-01-19T12:33:04.556Z,98053.80
2023-01-19T12:35:32.175Z,98058.41
2023-01-19T12:37:59.781Z,98058.60
2023-01-19T12:40:27.491Z,98051.55
2023-01-19T12:42:55.183Z,98049.45
2023-01-19T12:45:23.601Z,98046.35
2023-01-19T12:47:53.065Z,98047.52
2023-01-19T12:50:21.339Z,98050.38
2023-01-19T12:52:51.754Z,98049.81
2023-01-19T12:55:19.463Z,98053.86
2023-01-19T12:57:47.070Z,98064.27
2023-01-19T13:00:16.917Z,98065.56
2023-01-19T13:02:44.734Z,98074.02
2023-01-19T13:05:12.606Z,98081.75
2023-01-19T13:07:40.220Z,98083.30
2023-01-19T13:10:07.845Z,98087.09
2023-01-19T13:12:35.487Z,98091.52
2023-01-19T13:15:03.099Z,98087.03
2023-01-19T13:17:30.714Z,98084.30
2023-01-19T13:19:58.543Z,98080.89
2023-01-19T13:22:26.219Z,98082.72
2023-01-19T13:24:53.871Z,98077.33
2023-01-19T13:27:21.480Z,98068.67
2023-01-19T13:29:49.101Z,98075.31
2023-01-19T13:32:17.761Z,98085.10
2023-01-19T13:34:45.433Z,98087.41
2023-01-19T13:37:13.076Z,98092.92
2023-01-19T13:39:40.699Z,98101.52
2023-01-19T13:42:08.801Z,98099.10
2023-01-19T13:44:36.489Z,98091.55
2023-01-19T13:47:04.119Z,98098.04
2023-01-19T13:49:31.810Z,98101.67
2023-01-19T13:51:59.421Z,98103.89
2023-01-19T13:54:27.097Z,98109.48
2023-01-19T13:56:55.294Z,98121.27
2023-01-19T13:59:23.024Z,98131.65
2023-01-19T14:01:51.688Z,98136.27
2023-01-19T14:04:20.013Z,98146.61
2023-01-19T14:06:49.712Z,98146.08
2023-01-19T14:09:17.528Z,98140.32
2023-01-19T14:11:45.224Z,98134.30
2023-01-19T14:14:12.861Z,98141.23
2023-01-19T14:16:40.483Z,98152.66
2023-01-19T14:19:08.439Z,98160.36
2023-01-19T14:21:36.114Z,98155.24
2023-01-19T14:24:03.738Z,98152.07
2023-01-19T14:26:31.380Z,98145.21
2023-01-19T14:28:59.005Z,98145.29
2023-01-19T14:31:28.223Z,98150.73
2023-01-19T14:33:55.892Z,98154.64
2023-01-19T14:36:23.532Z,98153.61
2023-01-19T14:38:51.161Z,98149.66
2023-01-19T14:41:18.778Z,98147.78
2023-01-19T14:43:46.429Z,98148.21
2023-01-19T14:46:14.072Z,98144.92
2023-01-19T14:48:41.665Z,98148.10
2023-01-19T14:51:09.332Z,98151.34
2023-01-19T14:53:37.042Z,98151.52
2023-01-19T14:56:04.777Z,98150.30
2023-01-19T14:58:32.700Z,98146.14
2023-01-19T15:01:00.412Z,98150.59
2023-01-19T15:03:43.446Z,98153.88
2023-01-19T15:06:12.941Z,98155.61
2023-01-19T15:08:40.570Z,98155.89
2023-01-19T15:11:08.191Z,98164.44
2023-01-19T15:13:35.829Z,98161.88
2023-01-19T15:16:04.015Z,98156.35
2023-01-19T15:18:31.661Z,98157.91
2023-01-19T15:21:03.090Z,98159.30
2023-01-19T15:23:30.857Z,98160.85
2023-01-19T15:25:58.556Z,98166.34
2023-01-19T15:28:26.198Z,98167.17
2023-01-19T15:30:57.917Z,98167.66
2023-01-19T15:33:25.651Z,98171.12
2023-01-19T15:35:53.338Z,98176.84
2023-01-19T15:38:21.092Z,98181.95
2023-01-19T15:40:51.448Z,98185.73
2023-01-19T15:43:21.196Z,98186.64
2023-01-19T15:45:48.878Z,98184.98
2023-01-19T15:48:16.528Z,98191.02
2023-01-19T15:50:44.162Z,98192.40
2023-01-19T15:53:11.812Z,98192.35
2023-01-19T15:55:39.468Z,98186.58
2023-01-19T15:58:07.148Z,98192.38
2023-01-19T16:00:34.942Z,98201.69
2023-01-19T16:03:02.555Z,98209.45
2023-01-19T16:05:41.908Z,98208.92
2023-01-19T16:08:10.039Z,98208.08
2023-01-19T16:10:37.628Z,98213.80
2023-01-19T16:13:05.364Z,98219.73
2023-01-19T16:15:33.011Z,98221.13
2023-01-19T16:18:00.649Z,98218.05
2023-01-19T16:20:28.282Z,98220.61
2023-01-19T16:23:00.720Z,98223.70
2023-01-19T16:25:33.936Z,98222.28
2023-01-19T16:28:01.611Z,98224.33
2023-01-19T16:30:29.304Z,98226.12
2023-01-19T16:32:56.992Z,98224.60
2023-01-19T16:35:24.605Z,98224.23
2023-01-19T16:37:52.268Z,98223.99
2023-01-19T16:40:20.544Z,98223.27
2023-01-19T16:42:48.199Z,98220.00
2023-01-19T16:45:15.921Z,98224.31
2023-01-19T16:47:45.563Z,98216.59
2023-01-19T16:50:13.461Z,98211.46
2023-01-19T16:52:42.286Z,98211.61
2023-01-19T16:55:14.701Z,98214.35
2023-01-19T16:57:42.332Z,98212.42
2023-01-19T17:00:10.688Z,98212.52
2023-01-19T17:02:38.577Z,98214.22
2023-01-19T17:05:06.275Z,98216.20
2023-01-19T17:07:33.928Z,98225.34
2023-01-19T17:10:01.700Z,98227.20
2023-01-19T17:12:32.086Z,98223.61
2023-01-19T17:14:59.989Z,98223.76
2023-01-19T17:17:27.674Z,98226.14
2023-01-19T17:19:55.316Z,98227.83
2023-01-19T17:22:22.941Z,98229.20
2023-01-19T17:24:50.591Z,98227.39
2023-01-19T17:27:18.225Z,98225.83
2023-01-19T17:29:45.846Z,98224.78
2023-01-19T17:32:13.532Z,98227.14
2023-01-19T17:34:41.186Z,98230.02
2023-01-19T17:37:08.791Z,98231.93
2023-01-19T17:39:36.432Z,98229.69
2023-01-19T17:42:04.116Z,98229.73
2023-01-19T17:44:31.730Z,98232.17
2023-01-19T17:47:00.068Z,98230.58
2023-01-19T17:49:27.858Z,98235.02
2023-01-19T17:51:55.949Z,98237.90
2023-01-19T17:54:23.685Z,98246.96
2023-01-19T17:56:51.369Z,98253.13
2023-01-19T17:59:19.018Z,98256.56
2023-01-19T18:01:46.869Z,98253.73
2023-01-19T18:04:14.562Z,98253.57
2023-01-19T18:06:42.197Z,98255.05
2023-01-19T18:09:09.797Z,98265.14
2023-01-19T18:11:37.492Z,98267.98
2023-01-19T18:14:06.135Z,98272.92
2023-01-19T18:16:33.987Z,98275.63
2023-01-19T18:19:01.614Z,98276.46
2023-01-19T18:21:30.591Z,98272.06
2023-01-19T18:23:58.373Z,98274.70
2023-01-19T18:26:25.966Z,98271.98
2023-01-19T18:28:53.565Z,98271.98
2023-01-19T18:31:21.208Z,98271.22
2023-01-19T18:33:48.874Z,98272.05
2023-01-19T18:36:16.515Z,98267.67
2023-01-19T18:38:44.140Z,98260.46
2023-01-19T18:41:11.767Z,98261.96
2023-01-19T18:43:39.431Z,98262.77
2023-01-19T18:46:07.223Z,98264.59
2023-01-19T18:48:35.059Z,98265.71
2023-01-19T18:51:03.584Z,98272.56
2023-01-19T18:53:31.222Z,98276.59
2023-01-19T18:55:58.830Z,98282.19
2023-01-19T18:58:29.580Z,98281.52
2023-01-19T19:00:57.276Z,98282.55
2023-01-19T19:03:24.935Z,98287.35
2023-01-19T19:05:52.627Z,98287.86
2023-01-19T19:08:20.295Z,98286.45
2023-01-19T19:10:47.978Z,98283.98
2023-01-19T19:13:15.609Z,98290.23
2023-01-19T19:15:44.594Z,98305.10
2023-01-19T19:18:14.243Z,98310.09
2023-01-19T19:20:45.046Z,98313.15
2023-01-19T19:23:12.760Z,98322.98
2023-01-19T19:25:40.593Z,98329.52
2023-01-19T19:28:08.697Z,98333.98
2023-01-19T19:30:38.001Z,98334.69
2023-01-19T19:33:05.763Z,98339.42
2023-01-19T19:35:33.371Z,98340.14
2023-01-19T19:38:00.990Z,98338.25
2023-01-19T19:40:28.647Z,98337.03
2023-01-19T19:42:58.697Z,98346.80
2023-01-19T19:45:27.111Z,98354.50
2023-01-19T19:47:54.796Z,98360.48
2023-01-19T19:50:22.403Z,98365.83
2023-01-19T19:52:50.037Z,98374.24
2023-01-19T19:55:17.691Z,98375.34
2023-01-19T19:57:45.740Z,98369.48
2023-01-19T20:00:13.529Z,98368.05
2023-01-19T20:02:41.358Z,98381.95
2023-01-19T20:05:09.080Z,98398.14
2023-01-19T20:07:37.188Z,98400.03
2023-01-19T20:10:04.794Z,98410.63
2023-01-19T20:12:32.443Z,98418.90
2023-01-19T20:15:00.067Z,98422.83
2023-01-19T20:17:27.706Z,98425.61
2023-01-19T20:19:55.321Z,98428.84
2023-01-19T20:22:23.012Z,98433.07
2023-01-19T20:24:51.624Z,98431.23
2023-01-19T20:27:19.297Z,98434.95
2023-01-19T20:29:51.475Z,98437.88
2023-01-19T20:32:19.462Z,98438.88
2023-01-19T20:34:47.096Z,98436.79
2023-01-19T20:37:14.696Z,98431.95
2023-01-19T20:39:42.837Z,98432.77
2023-01-19T20:42:11.722Z,98426.91
2023-01-19T20:44:39.323Z,98419.23
2023-01-19T20:47:07.083Z,98417.84
2023-01-19T20:49:34.762Z,98420.71
2023-01-19T20:52:02.413Z,98426.05
2023-01-19T20:54:30.669Z,98431.55
2023-01-19T20:56:58.369Z,98435.15
2023-01-19T20:59:26.016Z,98437.70
2023-01-19T21:01:53.772Z,98448.52
2023-01-19T21:04:22.503Z,98459.94
2023-01-19T21:06:50.132Z,98462.16
2023-01-19T21:09:18.758Z,98464.34
2023-01-19T21:11:46.408Z,98475.22
2023-01-19T21:14:14.088Z,98473.27
2023-01-19T21:16:42.772Z,98477.52
2023-01-19T21:19:10.533Z,98483.85
2023-01-19T21:21:38.155Z,98489.62
2023-01-19T21:24:05.787Z,98493.70
2023-01-19T21:26:33.742Z,98489.70
2023-01-19T21:29:01.546Z,98488.48
2023-01-19T21:31:29.255Z,98491.09
2023-01-19T21:33:57.147Z,98490.86
2023-01-19T21:36:24.884Z,98494.92
2023-01-19T21:38:52.660Z,98493.45
2023-01-19T21:41:20.471Z,98497.41
2023-01-19T21:43:48.075Z,98496.33
2023-01-19T21:46:15.777Z,98498.84
2023-01-19T21:48:44.628Z,98497.80
2023-01-19T21:51:12.255Z,98499.39
2023-01-19T21:53:39.874Z,98498.34
2023-01-19T21:56:07.821Z,98495.09
2023-01-19T21:58:35.455Z,98496.39
2023-01-19T22:01:03.179Z,98496.65
2023-01-19T22:03:31.011Z,98494.94
2023-01-19T22:05:58.650Z,98497.48
2023-01-19T22:08:26.304Z,98503.57
2023-01-19T22:10:54.996Z,98512.14
2023-01-19T22:13:22.677Z,98518.06
2023-01-19T22:15:50.295Z,98526.34
2023-01-19T22:18:17.966Z,98538.60
2023-01-19T22:20:45.578Z,98548.65
2023-01-19T22:23:13.188Z,98559.72
2023-01-19T22:25:40.864Z,98558.26
2023-01-19T22:28:08.476Z,98562.08
2023-01-19T22:30:36.218Z,98572.23
2023-01-19T22:33:03.958Z,98576.98
2023-01-19T22:35:31.607Z,98584.10
2023-01-19T22:37:59.230Z,98586.77
2023-01-19T22:40:26.896Z,98589.46
2023-01-19T22:42:54.519Z,98596.98
2023-01-19T22:45:22.171Z,98599.99
2023-01-19T22:47:49.861Z,98597.95
2023-01-19T22:50:17.469Z,98600.12
2023-01-19T22:52:45.076Z,98597.38
2023-01-19T22:55:13.167Z,98590.66
2023-01-19T22:57:41.041Z,98589.60
2023-01-19T23:00:09.177Z,98587.83
2023-01-19T23:02:36.835Z,98591.52
2023-01-19T23:05:04.440Z,98592.55
2023-01-19T23:07:32.084Z,98596.98
2023-01-19T23:09:59.718Z,98597.62
2023-01-19T23:12:27.368Z,98603.93
2023-01-19T23:14:54.991Z,98608.90
2023-01-19T23:17:22.602Z,98615.37
2023-01-19T23:19:50.207Z,98621.17
2023-01-19T23:22:17.920Z,98619.35
2023-01-19T23:24:45.581Z,98623.42
2023-01-19T23:27:13.242Z,98618.98
2023-01-19T23:29:40.887Z,98616.87
2023-01-19T23:32:08.540Z,98618.77
2023-01-19T23:34:36.176Z,98618.73
2023-01-19T23:37:03.836Z,98623.83
2023-01-19T23:39:31.467Z,98625.55
2023-01-19T23:41:59.225Z,98631.48
2023-01-19T23:44:26.826Z,98638.49
2023-01-19T23:46:54.454Z,98645.35
2023-01-19T23:49:22.171Z,98656.14
2023-01-19T23:51:49.841Z,98659.09
2023-01-19T23:54:17.528Z,98666.40
2023-01-19T23:56:45.199Z,98667.12
2023-01-19T23:59:12.889Z,98664.73
